sensor_id;sensor_type;location;lat;lon;timestamp;temperature;humidity
12115;DHT22;6121;49.810;6.418;2023-12-28T00:01:20;7.20;99.90
12115;DHT22;6121;49.810;6.418;2023-12-28T00:03:45;7.10;99.90
12115;DHT22;6121;49.810;6.418;2023-12-28T00:06:11;7.20;99.90
12115;DHT22;6121;49.810;6.418;2023-12-28T00:11:04;7.30;99.90
12115;DHT22;6121;49.810;6.418;2023-12-28T00:13:29;7.30;99.90
12115;DHT22;6121;49.810;6.418;2023-12-28T00:15:55;7.60;99.90
12115;DHT22;6121;49.810;6.418;2023-12-28T00:18:21;7.20;99.90
12115;DHT22;6121;49.810;6.418;2023-12-28T00:20:47;7.20;99.90
12115;DHT22;6121;49.810;6.418;2023-12-28T00:25:39;7.30;99.90
12115;DHT22;6121;49.810;6.418;2023-12-28T00:28:05;6.90;99.90
12115;DHT22;6121;49.810;6.418;2023-12-28T00:30:31;7.20;99.90
12115;DHT22;6121;49.810;6.418;2023-12-28T00:32:59;7.30;99.90
12115;DHT22;6121;49.810;6.418;2023-12-28T00:35:25;7.20;99.90
12115;DHT22;6121;49.810;6.418;2023-12-28T00:40:17;7.30;99.90
12115;DHT22;6121;49.810;6.418;2023-12-28T00:42:43;7.10;99.90
12115;DHT22;6121;49.810;6.418;2023-12-28T00:45:09;7.30;99.90
12115;DHT22;6121;49.810;6.418;2023-12-28T00:47:36;7.30;99.90
12115;DHT22;6121;49.810;6.418;2023-12-28T00:50:01;7.20;99.90
12115;DHT22;6121;49.810;6.418;2023-12-28T00:52:27;7.30;99.90
12115;DHT22;6121;49.810;6.418;2023-12-28T00:54:53;7.20;99.90
12115;DHT22;6121;49.810;6.418;2023-12-28T00:57:19;7.10;99.90
12115;DHT22;6121;49.810;6.418;2023-12-28T00:59:45;7.20;99.90
12115;DHT22;6121;49.810;6.418;2023-12-28T01:02:11;7.30;99.90
12115;DHT22;6121;49.810;6.418;2023-12-28T01:07:03;7.20;99.90
12115;DHT22;6121;49.810;6.418;2023-12-28T01:09:31;7.10;99.90
12115;DHT22;6121;49.810;6.418;2023-12-28T01:11:59;7.10;99.90
12115;DHT22;6121;49.810;6.418;2023-12-28T01:16:51;7.10;99.90
12115;DHT22;6121;49.810;6.418;2023-12-28T01:19:17;7.10;99.90
12115;DHT22;6121;49.810;6.418;2023-12-28T01:21:43;7.10;99.90
12115;DHT22;6121;49.810;6.418;2023-12-28T01:24:09;7.10;99.90
12115;DHT22;6121;49.810;6.418;2023-12-28T01:26:35;7.00;99.90
12115;DHT22;6121;49.810;6.418;2023-12-28T01:29:01;7.00;99.90
12115;DHT22;6121;49.810;6.418;2023-12-28T01:31:30;7.40;99.90
12115;DHT22;6121;49.810;6.418;2023-12-28T01:33:56;7.10;99.90
12115;DHT22;6121;49.810;6.418;2023-12-28T01:36:22;7.10;99.90
12115;DHT22;6121;49.810;6.418;2023-12-28T01:38:48;7.10;99.90
12115;DHT22;6121;49.810;6.418;2023-12-28T01:41:15;7.30;99.90
12115;DHT22;6121;49.810;6.418;2023-12-28T01:46:18;7.10;99.90
12115;DHT22;6121;49.810;6.418;2023-12-28T01:48:46;7.20;99.90
12115;DHT22;6121;49.810;6.418;2023-12-28T01:53:44;7.10;99.90
12115;DHT22;6121;49.810;6.418;2023-12-28T01:56:11;7.20;99.90
12115;DHT22;6121;49.810;6.418;2023-12-28T01:58:38;7.10;99.90
12115;DHT22;6121;49.810;6.418;2023-12-28T02:01:06;7.20;99.90
12115;DHT22;6121;49.810;6.418;2023-12-28T02:03:33;7.30;99.90
12115;DHT22;6121;49.810;6.418;2023-12-28T02:06:00;7.60;99.90
12115;DHT22;6121;49.810;6.418;2023-12-28T02:08:28;7.30;99.90
12115;DHT22;6121;49.810;6.418;2023-12-28T02:10:54;7.30;99.90
12115;DHT22;6121;49.810;6.418;2023-12-28T02:13:21;7.20;99.90
12115;DHT22;6121;49.810;6.418;2023-12-28T02:16:05;7.30;99.90
12115;DHT22;6121;49.810;6.418;2023-12-28T02:21:11;7.40;99.90
12115;DHT22;6121;49.810;6.418;2023-12-28T02:23:37;7.30;99.90
12115;DHT22;6121;49.810;6.418;2023-12-28T02:26:03;7.40;99.90
12115;DHT22;6121;49.810;6.418;2023-12-28T02:28:29;7.40;99.90
12115;DHT22;6121;49.810;6.418;2023-12-28T02:30:55;7.90;99.90
12115;DHT22;6121;49.810;6.418;2023-12-28T02:36:06;7.60;99.90
12115;DHT22;6121;49.810;6.418;2023-12-28T02:38:36;7.50;99.90
12115;DHT22;6121;49.810;6.418;2023-12-28T02:41:03;7.70;99.90
12115;DHT22;6121;49.810;6.418;2023-12-28T02:43:30;7.70;99.90
12115;DHT22;6121;49.810;6.418;2023-12-28T02:45:56;7.60;99.90
12115;DHT22;6121;49.810;6.418;2023-12-28T02:50:48;7.90;99.90
12115;DHT22;6121;49.810;6.418;2023-12-28T02:53:14;8.20;99.90
12115;DHT22;6121;49.810;6.418;2023-12-28T02:55:40;8.00;99.90
12115;DHT22;6121;49.810;6.418;2023-12-28T02:58:06;7.70;99.90
12115;DHT22;6121;49.810;6.418;2023-12-28T03:00:32;7.90;99.90
12115;DHT22;6121;49.810;6.418;2023-12-28T03:05:24;7.80;99.90
12115;DHT22;6121;49.810;6.418;2023-12-28T03:07:50;7.80;99.90
12115;DHT22;6121;49.810;6.418;2023-12-28T03:10:17;7.80;99.90
12115;DHT22;6121;49.810;6.418;2023-12-28T03:12:43;7.80;99.90
12115;DHT22;6121;49.810;6.418;2023-12-28T03:15:09;7.90;99.90
12115;DHT22;6121;49.810;6.418;2023-12-28T03:17:35;8.40;99.90
12115;DHT22;6121;49.810;6.418;2023-12-28T03:20:03;8.10;99.90
12115;DHT22;6121;49.810;6.418;2023-12-28T03:22:29;8.10;99.90
12115;DHT22;6121;49.810;6.418;2023-12-28T03:24:55;8.30;99.90
12115;DHT22;6121;49.810;6.418;2023-12-28T03:27:21;8.00;99.90
12115;DHT22;6121;49.810;6.418;2023-12-28T03:29:47;8.10;99.90
12115;DHT22;6121;49.810;6.418;2023-12-28T03:32:14;8.20;99.90
12115;DHT22;6121;49.810;6.418;2023-12-28T03:37:06;8.30;99.90
12115;DHT22;6121;49.810;6.418;2023-12-28T03:42:00;8.30;99.90
12115;DHT22;6121;49.810;6.418;2023-12-28T03:44:26;8.20;99.90
12115;DHT22;6121;49.810;6.418;2023-12-28T03:46:51;8.30;99.90
12115;DHT22;6121;49.810;6.418;2023-12-28T03:49:18;8.50;99.90
12115;DHT22;6121;49.810;6.418;2023-12-28T03:51:45;8.30;99.90
12115;DHT22;6121;49.810;6.418;2023-12-28T03:54:11;8.50;99.90
12115;DHT22;6121;49.810;6.418;2023-12-28T03:56:37;8.40;99.90
12115;DHT22;6121;49.810;6.418;2023-12-28T03:59:06;8.70;99.90
12115;DHT22;6121;49.810;6.418;2023-12-28T04:01:34;8.60;99.90
12115;DHT22;6121;49.810;6.418;2023-12-28T04:06:27;8.60;99.90
12115;DHT22;6121;49.810;6.418;2023-12-28T04:08:53;8.50;99.90
12115;DHT22;6121;49.810;6.418;2023-12-28T04:13:45;8.60;99.90
12115;DHT22;6121;49.810;6.418;2023-12-28T04:16:15;8.60;99.90
12115;DHT22;6121;49.810;6.418;2023-12-28T04:18:41;8.60;99.90
12115;DHT22;6121;49.810;6.418;2023-12-28T04:21:12;8.60;99.90
12115;DHT22;6121;49.810;6.418;2023-12-28T04:23:40;8.70;99.90
12115;DHT22;6121;49.810;6.418;2023-12-28T04:31:03;8.70;99.90
12115;DHT22;6121;49.810;6.418;2023-12-28T04:33:29;8.60;99.90
12115;DHT22;6121;49.810;6.418;2023-12-28T04:38:22;8.80;99.90
12115;DHT22;6121;49.810;6.418;2023-12-28T04:40:48;8.80;99.90
12115;DHT22;6121;49.810;6.418;2023-12-28T04:43:14;9.00;99.90
12115;DHT22;6121;49.810;6.418;2023-12-28T04:45:40;8.60;99.90
12115;DHT22;6121;49.810;6.418;2023-12-28T04:50:32;8.70;99.90
12115;DHT22;6121;49.810;6.418;2023-12-28T04:55:24;8.70;99.90
12115;DHT22;6121;49.810;6.418;2023-12-28T04:57:50;8.60;99.90
12115;DHT22;6121;49.810;6.418;2023-12-28T05:00:17;8.90;99.90
12115;DHT22;6121;49.810;6.418;2023-12-28T05:02:43;8.50;99.90
12115;DHT22;6121;49.810;6.418;2023-12-28T05:05:12;8.70;99.90
12115;DHT22;6121;49.810;6.418;2023-12-28T05:07:38;8.90;99.90
12115;DHT22;6121;49.810;6.418;2023-12-28T05:10:04;8.70;99.90
12115;DHT22;6121;49.810;6.418;2023-12-28T05:12:30;8.70;99.90
12115;DHT22;6121;49.810;6.418;2023-12-28T05:14:56;8.60;99.90
12115;DHT22;6121;49.810;6.418;2023-12-28T05:17:22;8.60;99.90
12115;DHT22;6121;49.810;6.418;2023-12-28T05:19:48;8.80;99.90
12115;DHT22;6121;49.810;6.418;2023-12-28T05:22:14;8.50;99.90
12115;DHT22;6121;49.810;6.418;2023-12-28T05:24:39;8.80;99.90
12115;DHT22;6121;49.810;6.418;2023-12-28T05:27:05;9.00;99.90
12115;DHT22;6121;49.810;6.418;2023-12-28T05:29:31;8.60;99.90
12115;DHT22;6121;49.810;6.418;2023-12-28T05:31:57;8.70;99.90
12115;DHT22;6121;49.810;6.418;2023-12-28T05:36:50;8.80;99.90
12115;DHT22;6121;49.810;6.418;2023-12-28T05:39:16;8.60;99.90
12115;DHT22;6121;49.810;6.418;2023-12-28T05:41:41;8.70;99.90
12115;DHT22;6121;49.810;6.418;2023-12-28T05:44:07;8.60;99.90
12115;DHT22;6121;49.810;6.418;2023-12-28T05:51:25;8.80;99.90
12115;DHT22;6121;49.810;6.418;2023-12-28T05:53:51;8.80;99.90
12115;DHT22;6121;49.810;6.418;2023-12-28T05:56:17;8.80;99.90
12115;DHT22;6121;49.810;6.418;2023-12-28T05:58:43;8.70;99.90
12115;DHT22;6121;49.810;6.418;2023-12-28T06:01:09;8.80;99.90
12115;DHT22;6121;49.810;6.418;2023-12-28T06:03:35;8.70;99.90
12115;DHT22;6121;49.810;6.418;2023-12-28T06:06:00;8.70;99.90
12115;DHT22;6121;49.810;6.418;2023-12-28T06:08:26;8.70;99.90
12115;DHT22;6121;49.810;6.418;2023-12-28T06:10:52;8.80;99.90
12115;DHT22;6121;49.810;6.418;2023-12-28T06:13:18;8.90;99.90
12115;DHT22;6121;49.810;6.418;2023-12-28T06:15:44;9.20;99.90
12115;DHT22;6121;49.810;6.418;2023-12-28T06:18:10;9.00;99.90
12115;DHT22;6121;49.810;6.418;2023-12-28T06:20:35;8.80;99.90
12115;DHT22;6121;49.810;6.418;2023-12-28T06:23:02;8.70;99.90
12115;DHT22;6121;49.810;6.418;2023-12-28T06:25:28;8.70;99.90
12115;DHT22;6121;49.810;6.418;2023-12-28T06:27:54;8.80;99.90
12115;DHT22;6121;49.810;6.418;2023-12-28T06:30:20;8.80;99.90
12115;DHT22;6121;49.810;6.418;2023-12-28T06:35:12;8.80;99.90
12115;DHT22;6121;49.810;6.418;2023-12-28T06:40:04;8.80;99.90
12115;DHT22;6121;49.810;6.418;2023-12-28T06:42:30;8.70;99.90
12115;DHT22;6121;49.810;6.418;2023-12-28T06:44:56;8.80;99.90
12115;DHT22;6121;49.810;6.418;2023-12-28T06:47:21;8.80;99.90
12115;DHT22;6121;49.810;6.418;2023-12-28T06:49:47;8.90;99.90
12115;DHT22;6121;49.810;6.418;2023-12-28T06:52:13;8.60;99.90
12115;DHT22;6121;49.810;6.418;2023-12-28T06:54:39;8.80;99.90
12115;DHT22;6121;49.810;6.418;2023-12-28T06:59:31;8.70;99.90
12115;DHT22;6121;49.810;6.418;2023-12-28T07:01:57;8.80;99.90
12115;DHT22;6121;49.810;6.418;2023-12-28T07:06:51;8.70;99.90
12115;DHT22;6121;49.810;6.418;2023-12-28T07:09:17;8.90;99.90
12115;DHT22;6121;49.810;6.418;2023-12-28T07:14:09;8.60;99.90
12115;DHT22;6121;49.810;6.418;2023-12-28T07:16:35;8.60;99.90
12115;DHT22;6121;49.810;6.418;2023-12-28T07:19:01;8.90;99.90
12115;DHT22;6121;49.810;6.418;2023-12-28T07:21:26;8.80;99.90
12115;DHT22;6121;49.810;6.418;2023-12-28T07:23:52;9.00;99.90
12115;DHT22;6121;49.810;6.418;2023-12-28T07:26:18;8.70;99.90
12115;DHT22;6121;49.810;6.418;2023-12-28T07:31:25;8.70;99.90
12115;DHT22;6121;49.810;6.418;2023-12-28T07:33:51;8.70;99.90
12115;DHT22;6121;49.810;6.418;2023-12-28T07:36:17;9.10;99.90
12115;DHT22;6121;49.810;6.418;2023-12-28T07:41:10;9.10;99.90
12115;DHT22;6121;49.810;6.418;2023-12-28T07:43:35;9.00;99.90
12115;DHT22;6121;49.810;6.418;2023-12-28T07:51:03;8.90;99.90
12115;DHT22;6121;49.810;6.418;2023-12-28T07:53:29;9.00;99.90
12115;DHT22;6121;49.810;6.418;2023-12-28T07:55:54;9.50;99.90
12115;DHT22;6121;49.810;6.418;2023-12-28T07:58:22;9.50;99.90
12115;DHT22;6121;49.810;6.418;2023-12-28T08:00:47;9.10;99.90
12115;DHT22;6121;49.810;6.418;2023-12-28T08:05:41;9.10;99.90
12115;DHT22;6121;49.810;6.418;2023-12-28T08:08:07;9.40;99.90
12115;DHT22;6121;49.810;6.418;2023-12-28T08:10:33;9.40;99.90
12115;DHT22;6121;49.810;6.418;2023-12-28T08:15:25;9.20;99.90
12115;DHT22;6121;49.810;6.418;2023-12-28T08:17:51;9.60;99.90
12115;DHT22;6121;49.810;6.418;2023-12-28T08:20:17;9.20;99.90
12115;DHT22;6121;49.810;6.418;2023-12-28T08:25:09;9.30;99.90
12115;DHT22;6121;49.810;6.418;2023-12-28T08:30:03;9.30;99.90
12115;DHT22;6121;49.810;6.418;2023-12-28T08:32:30;9.40;99.90
12115;DHT22;6121;49.810;6.418;2023-12-28T08:37:22;9.60;99.90
12115;DHT22;6121;49.810;6.418;2023-12-28T08:39:48;9.50;99.90
12115;DHT22;6121;49.810;6.418;2023-12-28T08:42:14;9.60;99.90
12115;DHT22;6121;49.810;6.418;2023-12-28T08:44:40;9.80;99.90
12115;DHT22;6121;49.810;6.418;2023-12-28T08:47:05;9.70;99.90
12115;DHT22;6121;49.810;6.418;2023-12-28T08:49:31;10.10;99.90
12115;DHT22;6121;49.810;6.418;2023-12-28T08:51:58;9.80;99.90
12115;DHT22;6121;49.810;6.418;2023-12-28T08:54:24;9.70;99.90
12115;DHT22;6121;49.810;6.418;2023-12-28T08:56:50;9.70;99.90
12115;DHT22;6121;49.810;6.418;2023-12-28T08:59:16;10.00;99.90
12115;DHT22;6121;49.810;6.418;2023-12-28T09:01:41;9.70;99.90
12115;DHT22;6121;49.810;6.418;2023-12-28T09:04:07;9.70;99.90
12115;DHT22;6121;49.810;6.418;2023-12-28T09:06:33;9.80;99.90
12115;DHT22;6121;49.810;6.418;2023-12-28T09:09:01;10.00;99.90
12115;DHT22;6121;49.810;6.418;2023-12-28T09:11:27;9.90;99.90
12115;DHT22;6121;49.810;6.418;2023-12-28T09:13:54;9.90;99.90
12115;DHT22;6121;49.810;6.418;2023-12-28T09:18:46;9.80;99.90
12115;DHT22;6121;49.810;6.418;2023-12-28T09:21:12;10.10;99.90
12115;DHT22;6121;49.810;6.418;2023-12-28T09:23:38;10.00;99.90
12115;DHT22;6121;49.810;6.418;2023-12-28T09:26:05;10.10;99.90
12115;DHT22;6121;49.810;6.418;2023-12-28T09:28:32;10.50;99.90
12115;DHT22;6121;49.810;6.418;2023-12-28T09:30:58;10.50;99.90
12115;DHT22;6121;49.810;6.418;2023-12-28T09:33:23;10.70;99.90
12115;DHT22;6121;49.810;6.418;2023-12-28T09:38:16;10.30;99.90
12115;DHT22;6121;49.810;6.418;2023-12-28T09:43:24;10.30;99.90
12115;DHT22;6121;49.810;6.418;2023-12-28T09:45:51;10.30;99.90
12115;DHT22;6121;49.810;6.418;2023-12-28T09:48:18;10.50;99.90
12115;DHT22;6121;49.810;6.418;2023-12-28T09:50:54;10.50;99.90
12115;DHT22;6121;49.810;6.418;2023-12-28T09:53:24;10.50;99.90
12115;DHT22;6121;49.810;6.418;2023-12-28T09:58:18;10.40;99.90
12115;DHT22;6121;49.810;6.418;2023-12-28T10:03:15;10.40;99.90
12115;DHT22;6121;49.810;6.418;2023-12-28T10:05:42;10.50;99.90
12115;DHT22;6121;49.810;6.418;2023-12-28T10:08:08;10.60;99.90
12115;DHT22;6121;49.810;6.418;2023-12-28T10:10:36;10.80;99.90
12115;DHT22;6121;49.810;6.418;2023-12-28T10:13:02;11.40;99.90
12115;DHT22;6121;49.810;6.418;2023-12-28T10:15:30;11.00;99.90
12115;DHT22;6121;49.810;6.418;2023-12-28T10:17:56;11.40;99.90
12115;DHT22;6121;49.810;6.418;2023-12-28T10:20:21;11.00;99.90
12115;DHT22;6121;49.810;6.418;2023-12-28T10:25:14;11.30;99.90
12115;DHT22;6121;49.810;6.418;2023-12-28T10:27:40;11.40;99.90
12115;DHT22;6121;49.810;6.418;2023-12-28T10:30:08;11.30;99.90
12115;DHT22;6121;49.810;6.418;2023-12-28T10:32:39;11.10;99.90
12115;DHT22;6121;49.810;6.418;2023-12-28T10:35:05;11.30;99.90
12115;DHT22;6121;49.810;6.418;2023-12-28T10:37:32;11.90;99.90
12115;DHT22;6121;49.810;6.418;2023-12-28T10:39:59;12.40;99.90
12115;DHT22;6121;49.810;6.418;2023-12-28T10:43:00;11.80;99.90
12115;DHT22;6121;49.810;6.418;2023-12-28T10:45:29;11.70;99.90
12115;DHT22;6121;49.810;6.418;2023-12-28T10:48:07;11.80;99.90
12115;DHT22;6121;49.810;6.418;2023-12-28T10:50:42;11.60;99.90
12115;DHT22;6121;49.810;6.418;2023-12-28T10:58:50;11.70;99.90
12115;DHT22;6121;49.810;6.418;2023-12-28T11:01:26;11.80;99.90
12115;DHT22;6121;49.810;6.418;2023-12-28T11:04:02;11.90;99.90
12115;DHT22;6121;49.810;6.418;2023-12-28T11:06:30;11.70;99.90
12115;DHT22;6121;49.810;6.418;2023-12-28T11:13:53;12.80;99.90
12115;DHT22;6121;49.810;6.418;2023-12-28T11:16:20;13.20;99.90
12115;DHT22;6121;49.810;6.418;2023-12-28T11:18:47;13.10;99.90
12115;DHT22;6121;49.810;6.418;2023-12-28T11:21:13;13.00;99.90
12115;DHT22;6121;49.810;6.418;2023-12-28T11:23:39;12.70;99.90
12115;DHT22;6121;49.810;6.418;2023-12-28T11:31:10;12.70;99.90
12115;DHT22;6121;49.810;6.418;2023-12-28T11:33:47;13.10;99.90
12115;DHT22;6121;49.810;6.418;2023-12-28T11:36:25;13.20;99.90
12115;DHT22;6121;49.810;6.418;2023-12-28T11:38:53;13.00;99.90
12115;DHT22;6121;49.810;6.418;2023-12-28T11:41:22;13.00;99.90
12115;DHT22;6121;49.810;6.418;2023-12-28T11:43:57;13.20;99.90
12115;DHT22;6121;49.810;6.418;2023-12-28T11:46:23;13.00;99.90
12115;DHT22;6121;49.810;6.418;2023-12-28T11:48:49;13.00;99.90
12115;DHT22;6121;49.810;6.418;2023-12-28T11:51:15;13.10;99.90
12115;DHT22;6121;49.810;6.418;2023-12-28T11:53:41;13.10;99.90
12115;DHT22;6121;49.810;6.418;2023-12-28T11:58:35;12.80;99.90
12115;DHT22;6121;49.810;6.418;2023-12-28T12:01:02;13.00;99.90
12115;DHT22;6121;49.810;6.418;2023-12-28T12:03:28;12.80;99.90
12115;DHT22;6121;49.810;6.418;2023-12-28T12:05:58;12.80;99.90
12115;DHT22;6121;49.810;6.418;2023-12-28T12:08:24;12.60;99.90
12115;DHT22;6121;49.810;6.418;2023-12-28T12:11:00;12.70;99.90
12115;DHT22;6121;49.810;6.418;2023-12-28T12:13:28;12.40;99.90
12115;DHT22;6121;49.810;6.418;2023-12-28T12:15:55;12.30;99.90
12115;DHT22;6121;49.810;6.418;2023-12-28T12:18:22;12.40;99.90
12115;DHT22;6121;49.810;6.418;2023-12-28T12:20:49;12.30;99.90
12115;DHT22;6121;49.810;6.418;2023-12-28T12:23:15;12.30;99.90
12115;DHT22;6121;49.810;6.418;2023-12-28T12:25:42;12.40;99.90
12115;DHT22;6121;49.810;6.418;2023-12-28T12:30:34;12.40;99.90
12115;DHT22;6121;49.810;6.418;2023-12-28T12:33:00;12.40;99.90
12115;DHT22;6121;49.810;6.418;2023-12-28T12:35:27;12.40;99.90
12115;DHT22;6121;49.810;6.418;2023-12-28T12:42:53;12.00;99.90
12115;DHT22;6121;49.810;6.418;2023-12-28T12:47:48;12.30;99.90
12115;DHT22;6121;49.810;6.418;2023-12-28T12:50:15;11.90;99.90
12115;DHT22;6121;49.810;6.418;2023-12-28T12:52:42;12.40;99.90
12115;DHT22;6121;49.810;6.418;2023-12-28T13:00:09;12.10;99.90
12115;DHT22;6121;49.810;6.418;2023-12-28T13:02:36;12.10;99.90
12115;DHT22;6121;49.810;6.418;2023-12-28T13:05:03;12.10;99.90
12115;DHT22;6121;49.810;6.418;2023-12-28T13:07:31;12.00;99.90
12115;DHT22;6121;49.810;6.418;2023-12-28T13:09:57;11.90;99.90
12115;DHT22;6121;49.810;6.418;2023-12-28T13:22:09;12.20;99.90
12115;DHT22;6121;49.810;6.418;2023-12-28T13:24:35;12.00;99.90
12115;DHT22;6121;49.810;6.418;2023-12-28T13:27:00;12.00;99.90
12115;DHT22;6121;49.810;6.418;2023-12-28T13:29:26;12.10;99.90
12115;DHT22;6121;49.810;6.418;2023-12-28T13:39:11;12.00;99.90
12115;DHT22;6121;49.810;6.418;2023-12-28T13:41:40;12.00;99.90
12115;DHT22;6121;49.810;6.418;2023-12-28T13:49:04;11.80;99.90
12115;DHT22;6121;49.810;6.418;2023-12-28T13:51:30;12.00;99.90
12115;DHT22;6121;49.810;6.418;2023-12-28T13:53:56;12.10;99.90
12115;DHT22;6121;49.810;6.418;2023-12-28T13:56:22;12.30;99.90
12115;DHT22;6121;49.810;6.418;2023-12-28T13:58:48;12.40;99.90
12115;DHT22;6121;49.810;6.418;2023-12-28T14:03:40;11.90;99.90
12115;DHT22;6121;49.810;6.418;2023-12-28T14:06:06;11.90;99.90
12115;DHT22;6121;49.810;6.418;2023-12-28T14:08:32;11.70;99.90
12115;DHT22;6121;49.810;6.418;2023-12-28T14:10:58;11.70;99.90
12115;DHT22;6121;49.810;6.418;2023-12-28T14:13:24;11.70;99.90
12115;DHT22;6121;49.810;6.418;2023-12-28T14:18:16;11.60;99.90
12115;DHT22;6121;49.810;6.418;2023-12-28T14:20:42;11.50;99.90
12115;DHT22;6121;49.810;6.418;2023-12-28T14:23:08;11.60;99.90
12115;DHT22;6121;49.810;6.418;2023-12-28T14:25:34;11.50;99.90
12115;DHT22;6121;49.810;6.418;2023-12-28T14:30:26;11.40;99.90
12115;DHT22;6121;49.810;6.418;2023-12-28T14:32:53;11.40;99.90
12115;DHT22;6121;49.810;6.418;2023-12-28T14:35:19;11.30;99.90
12115;DHT22;6121;49.810;6.418;2023-12-28T14:40:11;11.20;99.90
12115;DHT22;6121;49.810;6.418;2023-12-28T14:45:04;11.40;99.90
12115;DHT22;6121;49.810;6.418;2023-12-28T14:49:57;11.20;99.90
12115;DHT22;6121;49.810;6.418;2023-12-28T14:52:23;11.40;99.90
12115;DHT22;6121;49.810;6.418;2023-12-28T14:54:50;11.50;99.90
12115;DHT22;6121;49.810;6.418;2023-12-28T15:02:17;11.20;99.90
12115;DHT22;6121;49.810;6.418;2023-12-28T15:04:44;11.20;99.90
12115;DHT22;6121;49.810;6.418;2023-12-28T15:07:10;11.20;99.90
12115;DHT22;6121;49.810;6.418;2023-12-28T15:14:29;10.90;99.90
12115;DHT22;6121;49.810;6.418;2023-12-28T15:16:56;10.90;99.90
12115;DHT22;6121;49.810;6.418;2023-12-28T15:19:22;11.00;99.90
12115;DHT22;6121;49.810;6.418;2023-12-28T15:21:48;10.90;99.90
12115;DHT22;6121;49.810;6.418;2023-12-28T15:24:14;10.80;99.90
12115;DHT22;6121;49.810;6.418;2023-12-28T15:29:07;10.60;99.90
12115;DHT22;6121;49.810;6.418;2023-12-28T15:31:32;10.70;99.90
12115;DHT22;6121;49.810;6.418;2023-12-28T15:33:58;10.60;99.90
12115;DHT22;6121;49.810;6.418;2023-12-28T15:36:24;10.70;99.90
12115;DHT22;6121;49.810;6.418;2023-12-28T15:38:50;10.60;99.90
12115;DHT22;6121;49.810;6.418;2023-12-28T15:41:16;10.80;99.90
12115;DHT22;6121;49.810;6.418;2023-12-28T15:43:42;10.40;99.90
12115;DHT22;6121;49.810;6.418;2023-12-28T15:46:08;10.40;99.90
12115;DHT22;6121;49.810;6.418;2023-12-28T15:48:36;10.30;99.90
12115;DHT22;6121;49.810;6.418;2023-12-28T15:51:02;10.80;99.90
12115;DHT22;6121;49.810;6.418;2023-12-28T15:53:28;10.40;99.90
12115;DHT22;6121;49.810;6.418;2023-12-28T15:55:54;10.70;99.90
12115;DHT22;6121;49.810;6.418;2023-12-28T15:58:20;10.80;99.90
12115;DHT22;6121;49.810;6.418;2023-12-28T16:00:49;10.40;99.90
12115;DHT22;6121;49.810;6.418;2023-12-28T16:03:14;10.30;99.90
12115;DHT22;6121;49.810;6.418;2023-12-28T16:12:59;10.30;99.90
12115;DHT22;6121;49.810;6.418;2023-12-28T16:17:55;10.30;99.90
12115;DHT22;6121;49.810;6.418;2023-12-28T16:20:25;10.30;99.90
12115;DHT22;6121;49.810;6.418;2023-12-28T16:25:17;10.10;99.90
12115;DHT22;6121;49.810;6.418;2023-12-28T16:32:36;10.10;99.90
12115;DHT22;6121;49.810;6.418;2023-12-28T16:37:28;10.10;99.90
12115;DHT22;6121;49.810;6.418;2023-12-28T16:39:54;10.10;99.90
12115;DHT22;6121;49.810;6.418;2023-12-28T16:42:20;10.40;99.90
12115;DHT22;6121;49.810;6.418;2023-12-28T16:44:46;10.00;99.90
12115;DHT22;6121;49.810;6.418;2023-12-28T16:47:11;10.20;99.90
12115;DHT22;6121;49.810;6.418;2023-12-28T16:49:38;10.00;99.90
12115;DHT22;6121;49.810;6.418;2023-12-28T16:52:04;9.90;99.90
12115;DHT22;6121;49.810;6.418;2023-12-28T16:54:30;9.90;99.90
12115;DHT22;6121;49.810;6.418;2023-12-28T16:56:56;10.30;99.90
12115;DHT22;6121;49.810;6.418;2023-12-28T16:59:22;10.30;99.90
12115;DHT22;6121;49.810;6.418;2023-12-28T17:04:15;9.90;99.90
12115;DHT22;6121;49.810;6.418;2023-12-28T17:06:41;10.00;99.90
12115;DHT22;6121;49.810;6.418;2023-12-28T17:14:01;9.80;99.90
12115;DHT22;6121;49.810;6.418;2023-12-28T17:16:28;9.70;99.90
12115;DHT22;6121;49.810;6.418;2023-12-28T17:21:24;9.70;99.90
12115;DHT22;6121;49.810;6.418;2023-12-28T17:23:54;9.60;99.90
12115;DHT22;6121;49.810;6.418;2023-12-28T17:26:26;10.00;99.90
12115;DHT22;6121;49.810;6.418;2023-12-28T17:29:02;9.60;99.90
12115;DHT22;6121;49.810;6.418;2023-12-28T17:31:31;9.60;99.90
12115;DHT22;6121;49.810;6.418;2023-12-28T17:36:24;9.50;99.90
12115;DHT22;6121;49.810;6.418;2023-12-28T17:38:53;9.50;99.90
12115;DHT22;6121;49.810;6.418;2023-12-28T17:43:52;9.60;99.90
12115;DHT22;6121;49.810;6.418;2023-12-28T17:46:40;9.50;99.90
12115;DHT22;6121;49.810;6.418;2023-12-28T17:51:38;9.60;99.90
12115;DHT22;6121;49.810;6.418;2023-12-28T17:54:05;9.60;99.90
12115;DHT22;6121;49.810;6.418;2023-12-28T17:56:31;9.60;99.90
12115;DHT22;6121;49.810;6.418;2023-12-28T17:58:57;9.60;99.90
12115;DHT22;6121;49.810;6.418;2023-12-28T18:01:23;9.80;99.90
12115;DHT22;6121;49.810;6.418;2023-12-28T18:03:49;9.60;99.90
12115;DHT22;6121;49.810;6.418;2023-12-28T18:06:15;10.00;99.90
12115;DHT22;6121;49.810;6.418;2023-12-28T18:08:41;9.60;99.90
12115;DHT22;6121;49.810;6.418;2023-12-28T18:13:34;9.60;99.90
12115;DHT22;6121;49.810;6.418;2023-12-28T18:16:00;9.60;99.90
12115;DHT22;6121;49.810;6.418;2023-12-28T18:20:52;9.50;99.90
12115;DHT22;6121;49.810;6.418;2023-12-28T18:23:18;9.70;99.90
12115;DHT22;6121;49.810;6.418;2023-12-28T18:25:45;9.60;99.90
12115;DHT22;6121;49.810;6.418;2023-12-28T18:28:10;10.00;99.90
12115;DHT22;6121;49.810;6.418;2023-12-28T18:30:36;10.00;99.90
12115;DHT22;6121;49.810;6.418;2023-12-28T18:35:29;9.70;99.90
12115;DHT22;6121;49.810;6.418;2023-12-28T18:37:58;9.80;99.90
12115;DHT22;6121;49.810;6.418;2023-12-28T18:40:24;9.80;99.90
12115;DHT22;6121;49.810;6.418;2023-12-28T18:42:51;9.70;99.90
12115;DHT22;6121;49.810;6.418;2023-12-28T18:45:17;9.70;99.90
12115;DHT22;6121;49.810;6.418;2023-12-28T18:47:42;9.60;99.90
12115;DHT22;6121;49.810;6.418;2023-12-28T18:50:09;9.90;99.90
12115;DHT22;6121;49.810;6.418;2023-12-28T18:52:35;9.70;99.90
12115;DHT22;6121;49.810;6.418;2023-12-28T18:57:27;9.70;99.90
12115;DHT22;6121;49.810;6.418;2023-12-28T18:59:53;9.60;99.90
12115;DHT22;6121;49.810;6.418;2023-12-28T19:02:19;9.50;99.90
12115;DHT22;6121;49.810;6.418;2023-12-28T19:04:51;9.60;99.90
12115;DHT22;6121;49.810;6.418;2023-12-28T19:07:17;9.80;99.90
12115;DHT22;6121;49.810;6.418;2023-12-28T19:09:43;9.80;99.90
12115;DHT22;6121;49.810;6.418;2023-12-28T19:12:10;9.80;99.90
12115;DHT22;6121;49.810;6.418;2023-12-28T19:14:40;9.70;99.90
12115;DHT22;6121;49.810;6.418;2023-12-28T19:19:33;9.40;99.90
12115;DHT22;6121;49.810;6.418;2023-12-28T19:21:59;9.40;99.90
12115;DHT22;6121;49.810;6.418;2023-12-28T19:24:25;9.60;99.90
12115;DHT22;6121;49.810;6.418;2023-12-28T19:26:51;9.50;99.90
12115;DHT22;6121;49.810;6.418;2023-12-28T19:29:17;9.60;99.90
12115;DHT22;6121;49.810;6.418;2023-12-28T19:31:43;9.50;99.90
12115;DHT22;6121;49.810;6.418;2023-12-28T19:34:09;9.50;99.90
12115;DHT22;6121;49.810;6.418;2023-12-28T19:36:34;9.30;99.90
12115;DHT22;6121;49.810;6.418;2023-12-28T19:39:00;9.60;99.90
12115;DHT22;6121;49.810;6.418;2023-12-28T19:41:26;9.50;99.90
12115;DHT22;6121;49.810;6.418;2023-12-28T19:43:52;9.40;99.90
12115;DHT22;6121;49.810;6.418;2023-12-28T19:46:18;9.70;99.90
12115;DHT22;6121;49.810;6.418;2023-12-28T19:48:44;9.60;99.90